Map

Track Data

SID SEASON NUMBER BASIN SUBBASIN NAME ISO_TIME NATURE LAT LON WMO_WIND WMO_PRES WMO_AGENCY TRACK_TYPE DIST2LAND LANDFALL IFLAG USA_AGENCY USA_ATCF_ID USA_LAT USA_LON USA_RECORD USA_STATUS USA_WIND USA_PRES USA_SSHS USA_R34_NE USA_R34_SE USA_R34_SW USA_R34_NW USA_R50_NE USA_R50_SE USA_R50_SW USA_R50_NW USA_R64_NE USA_R64_SE USA_R64_SW USA_R64_NW USA_POCI USA_ROCI USA_RMW USA_EYE TOKYO_LAT TOKYO_LON TOKYO_GRADE TOKYO_WIND TOKYO_PRES TOKYO_R50_DIR TOKYO_R50_LONG TOKYO_R50_SHORT TOKYO_R30_DIR TOKYO_R30_LONG TOKYO_R30_SHORT TOKYO_LAND CMA_LAT CMA_LON CMA_CAT CMA_WIND CMA_PRES HKO_LAT HKO_LON HKO_CAT HKO_WIND HKO_PRES NEWDELHI_LAT NEWDELHI_LON NEWDELHI_GRADE NEWDELHI_WIND NEWDELHI_PRES NEWDELHI_CI NEWDELHI_DP NEWDELHI_POCI REUNION_LAT REUNION_LON REUNION_TYPE REUNION_WIND REUNION_PRES REUNION_TNUM REUNION_CI REUNION_RMW REUNION_R34_NE REUNION_R34_SE REUNION_R34_SW REUNION_R34_NW REUNION_R50_NE REUNION_R50_SE REUNION_R50_SW REUNION_R50_NW REUNION_R64_NE REUNION_R64_SE REUNION_R64_SW REUNION_R64_NW BOM_LAT BOM_LON BOM_TYPE BOM_WIND BOM_PRES BOM_TNUM BOM_CI BOM_RMW BOM_R34_NE BOM_R34_SE BOM_R34_SW BOM_R34_NW BOM_R50_NE BOM_R50_SE BOM_R50_SW BOM_R50_NW BOM_R64_NE BOM_R64_SE BOM_R64_SW BOM_R64_NW BOM_ROCI BOM_POCI BOM_EYE BOM_POS_METHOD BOM_PRES_METHOD NADI_LAT NADI_LON NADI_CAT NADI_WIND NADI_PRES WELLINGTON_LAT WELLINGTON_LON WELLINGTON_WIND WELLINGTON_PRES DS824_LAT DS824_LON DS824_STAGE DS824_WIND DS824_PRES TD9636_LAT TD9636_LON TD9636_STAGE TD9636_WIND TD9636_PRES TD9635_LAT TD9635_LON TD9635_WIND TD9635_PRES TD9635_ROCI NEUMANN_LAT NEUMANN_LON NEUMANN_CLASS NEUMANN_WIND NEUMANN_PRES MLC_LAT MLC_LON MLC_CLASS MLC_WIND MLC_PRES USA_GUST BOM_GUST BOM_GUST_PER REUNION_GUST REUNION_GUST_PER USA_SEAHGT USA_SEARAD_NE USA_SEARAD_SE USA_SEARAD_SW USA_SEARAD_NW STORM_SPEED STORM_DIR
1990261N12141 1990 88 WP MM GENE 1990-09-18 06:00:00 NR 12.3000 141.100 main 1576 1576 O_____________ jtwc_wp WP211990 12.3000 141.100 15 -1 4 318
1990261N12141 1990 88 WP MM GENE 1990-09-18 09:00:00 NR 12.4500 140.958 main 1593 1589 P_____________ WP211990 12.4500 140.958 15 -1 4 316
1990261N12141 1990 88 WP MM GENE 1990-09-18 12:00:00 NR 12.6000 140.800 main 1595 1592 O_____________ jtwc_wp WP211990 12.6000 140.800 15 -1 5 312
1990261N12141 1990 88 WP MM GENE 1990-09-18 15:00:00 NR 12.7500 140.615 main 1599 1599 P_____________ WP211990 12.7500 140.615 15 -1 5 308
1990261N12141 1990 88 WP MM GENE 1990-09-18 18:00:00 NR 12.9000 140.400 main 1603 1582 O_____________ jtwc_wp WP211990 12.9000 140.400 15 -1 6 305
1990261N12141 1990 88 WP MM GENE 1990-09-18 21:00:00 NR 13.0650 140.150 main 1584 1553 P_____________ WP211990 13.0650 140.150 15 -1 6 302
1990261N12141 1990 88 WP MM GENE 1990-09-19 00:00:00 NR 13.2000 139.900 main 1553 1533 O_____________ jtwc_wp WP211990 13.2000 139.900 15 -1 5 295
1990261N12141 1990 88 WP MM GENE 1990-09-19 03:00:00 NR 13.2724 139.700 main 1533 1512 P_____________ WP211990 13.2724 139.700 15 -1 4 284
1990261N12141 1990 88 WP MM GENE 1990-09-19 06:00:00 NR 13.3000 139.500 main 1512 1490 O_____________ jtwc_wp WP211990 13.3000 139.500 15 -1 4 274
1990261N12141 1990 88 WP MM GENE 1990-09-19 09:00:00 NR 13.3000 139.257 main 1490 1458 P_____________ WP211990 13.3000 139.257 15 -1 5 270
1990261N12141 1990 88 WP MM GENE 1990-09-19 12:00:00 NR 13.3000 139.000 main 1458 1437 O_____________ jtwc_wp WP211990 13.3000 139.000 15 -1 5 275
1990261N12141 1990 88 WP MM GENE 1990-09-19 15:00:00 NR 13.3425 138.750 main 1437 1406 P_____________ WP211990 13.3425 138.750 15 -1 5 282
1990261N12141 1990 88 WP MM GENE 1990-09-19 18:00:00 NR 13.4000 138.500 main 1406 1385 O_____________ jtwc_wp WP211990 13.4000 138.500 15 -1 5 283
1990261N12141 1990 88 WP MM GENE 1990-09-19 21:00:00 NR 13.4575 138.250 main 1387 1355 P_____________ WP211990 13.4575 138.250 15 -1 5 282
1990261N12141 1990 88 WP MM GENE 1990-09-20 00:00:00 NR 13.5000 138.000 main 1355 1334 O_____________ jtwc_wp WP211990 13.5000 138.000 15 -1 5 277
1990261N12141 1990 88 WP MM GENE 1990-09-20 03:00:00 NR 13.5150 137.743 main 1323 1302 P_____________ WP211990 13.5150 137.743 15 -1 5 270
1990261N12141 1990 88 WP MM GENE 1990-09-20 06:00:00 NR 13.5000 137.500 main 1302 1281 O_____________ jtwc_wp WP211990 13.5000 137.500 15 -1 4 262
1990261N12141 1990 88 WP MM GENE 1990-09-20 09:00:00 NR 13.4575 137.292 main 1281 1257 P_____________ WP211990 13.4575 137.292 15 -1 4 256
1990261N12141 1990 88 WP MM GENE 1990-09-20 12:00:00 NR 13.4000 137.100 main 1257 1234 O_____________ jtwc_wp WP211990 13.4000 137.100 15 -1 4 253
1990261N12141 1990 88 WP MM GENE 1990-09-20 15:00:00 NR 13.3425 136.908 main 1234 1213 P_____________ WP211990 13.3425 136.908 15 -1 4 256
1990261N12141 1990 88 WP MM GENE 1990-09-20 18:00:00 NR 13.3000 136.700 main 1213 1191 O_____________ jtwc_wp WP211990 13.3000 136.700 15 -1 4 263
1990261N12141 1990 88 WP MM GENE 1990-09-20 21:00:00 NR 13.2925 136.458 main 1191 1160 P_____________ WP211990 13.2925 136.458 15 -1 5 270
1990261N12141 1990 88 WP MM GENE 1990-09-21 00:00:00 NR 13.3000 136.200 main 1160 1138 O_____________ jtwc_wp WP211990 13.3000 136.200 15 -1 5 270
1990261N12141 1990 88 WP MM GENE 1990-09-21 03:00:00 NR 13.2925 135.950 main 1128 1107 P_____________ WP211990 13.2925 135.950 15 -1 5 270
1990261N12141 1990 88 WP MM GENE 1990-09-21 06:00:00 NR 13.3000 135.700 main 1107 1085 O_____________ jtwc_wp WP211990 13.3000 135.700 15 -1 5 275
1990261N12141 1990 88 WP MM GENE 1990-09-21 09:00:00 NR 13.3350 135.443 main 1075 1056 P_____________ WP211990 13.3350 135.443 15 -1 5 282
1990261N12141 1990 88 WP MM GENE 1990-09-21 12:00:00 NR 13.4000 135.200 main 1056 1038 O_____________ jtwc_wp WP211990 13.4000 135.200 15 -1 5 291
1990261N12141 1990 88 WP MM GENE 1990-09-21 15:00:00 NR 13.4999 135.000 main 1038 1020 P_____________ WP211990 13.4999 135.000 15 -1 4 297
1990261N12141 1990 88 WP MM GENE 1990-09-21 18:00:00 NR 13.6000 134.800 main 1020 988 O_____________ jtwc_wp WP211990 13.6000 134.800 15 -1 5 287
1990261N12141 1990 88 WP MM GENE 1990-09-21 21:00:00 NR 13.6350 134.535 main 988 979 P_____________ WP211990 13.6350 134.535 15 -1 4 280
1990261N12141 1990 88 WP MM GENE 1990-09-22 00:00:00 TS 13.6600 134.440 1010 tokyo main 979 979 OO____________ jtwc_wp WP211990 13.7000 134.300 15 -1 13.5000 135.000 2 1010 0 0 0 2 308
1990261N12141 1990 88 WP MM GENE 1990-09-22 03:00:00 TS 13.7583 134.373 main 981 970 PP____________ WP211990 13.8849 134.185 15 -1 13.5050 134.750 2 1009 0 0 2 319
1990261N12141 1990 88 WP MM GENE 1990-09-22 06:00:00 TS 13.8429 134.271 1008 tokyo main 970 951 OO____________ jtwc_wp WP211990 14.1000 134.100 15 -1 13.5000 134.500 2 1008 0 0 0 3 292
1990261N12141 1990 88 WP MM GENE 1990-09-22 09:00:00 TS 13.8675 134.100 main 951 930 PP____________ WP211990 14.2500 133.950 15 -1 13.4850 134.250 2 1008 0 0 4 279
1990261N12141 1990 88 WP MM GENE 1990-09-22 12:00:00 TS 13.9000 133.911 1008 tokyo main 930 911 OOO___________ jtwc_wp WP211990 14.4000 133.800 15 -1 13.5000 134.000 2 1008 0 0 0 13.5000 134.000 0 19 1004 4 286
1990261N12141 1990 88 WP MM GENE 1990-09-22 15:00:00 TS 13.9735 133.712 main 911 892 PPP___________ WP211990 14.5850 133.692 15 -1 13.5400 133.735 2 1008 0 0 13.6176 133.703 0 21 1004 4 302
1990261N12141 1990 88 WP MM GENE 1990-09-22 18:00:00 TS 14.1273 133.536 1008 tokyo main 892 887 OOO___________ jtwc_wp WP211990 14.8000 133.600 15 -1 13.7000 133.500 2 1008 0 0 0 13.8000 133.500 1 23 1004 5 327
1990261N12141 1990 88 WP MM GENE 1990-09-22 21:00:00 TS 14.3958 133.426 main 890 889 PPP___________ WP211990 15.0500 133.507 17 -1 14.0400 133.328 2 1007 0 0 14.0974 133.442 1 23 1004 7 343
1990261N12141 1990 88 WP MM GENE 1990-09-23 00:00:00 TS 14.7667 133.333 1006 tokyo main 892 889 OOO___________ jtwc_wp WP211990 15.3000 133.400 20 -1 14.5000 133.200 2 1006 0 0 0 14.5000 133.400 1 23 1004 8 344
1990261N12141 1990 88 WP MM GENE 1990-09-23 03:00:00 TS 15.1466 133.203 main 893 890 PPP___________ WP211990 15.4700 133.265 22 -1 14.9849 133.115 2 1005 0 0 14.9850 133.230 1 26 1003 9 340
1990261N12141 1990 88 WP MM GENE 1990-09-23 06:00:00 TS 15.5667 133.033 1004 tokyo main 894 894 OOO___________ jtwc_wp WP211990 15.7000 133.100 25 -1 15.5000 133.000 2 1004 0 0 0 15.5000 133.000 1 29 1002 10 338
1990261N12141 1990 88 WP MM GENE 1990-09-23 09:00:00 TS 16.0383 132.822 main 895 895 PPP___________ WP211990 16.1274 132.930 25 -1 16.0225 132.780 2 1004 0 0 15.9650 132.757 1 29 1002 11 334
1990261N12141 1990 88 WP MM GENE 1990-09-23 12:00:00 TS 16.5077 132.546 1004 tokyo main 894 891 OOOO__________ jtwc_wp WP211990 16.6000 132.700 25 -1 16.5000 132.500 2 1004 0 0 0 16.4000 132.500 1 29 1002 16.6000 132.300 TD 25 1000 10 327
1990261N12141 1990 88 WP MM GENE 1990-09-23 15:00:00 TS 16.8975 132.236 main 892 884 PPPP__________ WP211990 16.9800 132.380 27 -1 16.8725 132.192 2 1003 0 0 16.8150 132.250 1 29 1001 16.9476 132.008 TD 27 1000 10 321
1990261N12141 1990 88 WP MM GENE 1990-09-23 18:00:00 TS 17.2467 131.913 1002 tokyo main 884 874 OOOO__________ jtwc_wp WP211990 17.3000 132.000 30 -1 17.2000 131.900 2 1002 0 0 0 17.2000 132.000 1 29 1000 17.3000 131.700 TD 30 1000 9 320
1990261N12141 1990 88 WP MM GENE 1990-09-23 21:00:00 TS 17.5842 131.630 main 874 863 PPPP__________ WP211990 17.5574 131.622 32 -1 17.5573 131.722 2 1001 0 0 17.5646 131.810 1 29 1000 17.6574 131.365 TD 32 997 9 318
1990261N12141 1990 88 WP MM GENE 1990-09-24 00:00:00 TS 17.9000 131.300 35 1000 tokyo main 863 836 OOOO__________ jtwc_wp WP211990 17.8000 131.200 35 0 17.9000 131.500 3 35 1000 0 9 90 90 0 17.9000 131.500 1 29 1000 18.0000 131.000 TS 35 995 10 309
1990261N12141 1990 88 WP MM GENE 1990-09-24 03:00:00 TS 18.2058 130.821 main 836 813 PPPP__________ WP211990 18.1000 130.715 35 0 18.1925 131.095 3 35 999 0 9 90 90 18.2082 130.858 1 33 997 18.3224 130.615 TS 35 995 11 302
1990261N12141 1990 88 WP MM GENE 1990-09-24 06:00:00 TS 18.5000 130.300 35 998 tokyo main 813 795 OOOO__________ jtwc_wp WP211990 18.4000 130.200 35 0 18.5000 130.600 3 35 998 0 9 90 90 0 18.5000 130.200 2 38 995 18.6000 130.200 TS 35 995 11 303
1990261N12141 1990 88 WP MM GENE 1990-09-24 09:00:00 TS 18.7948 129.855 main 802 751 PPPP__________ WP211990 18.6500 129.685 37 0 18.9149 130.115 3 37 997 0 9 107 107 18.7994 129.877 2 38 995 18.8150 129.742 TS 37 992 10 305
1990261N12141 1990 88 WP MM GENE 1990-09-24 12:00:00 TS 19.0750 129.425 40 996 tokyo main 751 712 OOOO__________ jtwc_wp WP211990 18.9000 129.200 40 0 19.3000 129.600 3 40 996 0 9 125 125 0 19.1000 129.600 2 38 995 19.0000 129.300 TS 40 990 10 303
1990261N12141 1990 88 WP MM GENE 1990-09-24 15:00:00 TS 19.3363 128.958 main 712 665 PPPP__________ WP211990 19.1924 128.770 42 0 19.5377 129.020 3 42 993 0 9 137 137 19.4302 129.108 2 38 992 19.1848 128.935 TS 40 990 10 300
1990261N12141 1990 88 WP MM GENE 1990-09-24 18:00:00 TS 19.5750 128.525 45 990 tokyo main 665 636 OOOO__________ jtwc_wp WP211990 19.5000 128.400 45 0 19.7000 128.500 3 45 990 0 9 150 150 0 19.7000 128.600 2 38 990 19.4000 128.600 TS 40 990 9 301
1990261N12141 1990 88 WP MM GENE 1990-09-24 21:00:00 TS 19.7724 128.173 main 639 611 PPPP__________ WP211990 19.7999 128.077 47 0 19.8347 128.162 3 47 987 0 9 162 162 19.7849 128.212 2 43 987 19.6700 128.242 TS 42 987 7 305
1990261N12141 1990 88 WP MM GENE 1990-09-25 00:00:00 TS 20.0000 127.875 50 985 tokyo main 614 591 OOOO__________ jtwc_wp WP211990 20.1000 127.800 50 0 20.0000 127.900 4 50 985 0 9 175 175 0 19.9000 127.900 3 48 985 20.0000 127.900 TS 45 985 8 314
1990261N12141 1990 88 WP MM GENE 1990-09-25 03:00:00 TS 20.3200 127.581 main 595 583 PPPP__________ WP211990 20.3850 127.535 52 0 20.2550 127.585 4 52 982 0 9 187 187 20.2549 127.628 3 48 985 20.3850 127.578 TS 45 985 9 324
1990261N12141 1990 88 WP MM GENE 1990-09-25 06:00:00 TS 20.7000 127.325 55 980 tokyo main 583 579 OOOO__________ jtwc_wp WP211990 20.7000 127.300 55 0 20.6000 127.300 4 55 980 9 50 50 9 200 200 0 20.7000 127.400 3 48 985 20.8000 127.300 TS 45 985 9 331
1990261N12141 1990 88 WP MM GENE 1990-09-25 09:00:00 TS 21.1125 127.106 main 586 586 PPPP__________ WP211990 21.0925 127.085 57 0 21.0424 127.085 4 57 977 9 55 55 9 212 212 21.1075 127.185 3 53 982 21.2075 127.070 TS 47 982 9 336
1990261N12141 1990 88 WP MM GENE 1990-09-25 12:00:00 TS 21.5250 126.925 60 975 tokyo main 592 570 OOOO__________ jtwc_wp WP211990 21.5000 126.900 60 0 21.5000 126.900 4 60 975 9 60 60 9 225 225 0 21.5000 127.000 3 58 980 21.6000 126.900 STS 50 980 8 337
1990261N12141 1990 88 WP MM GENE 1990-09-25 15:00:00 TS 21.8844 126.756 main 570 542 PPPP__________ WP211990 21.8575 126.735 62 0 21.8650 126.670 4 62 972 9 60 60 9 225 225 21.8575 126.835 3 63 975 21.9575 126.785 STS 55 977 8 338
1990261N12141 1990 88 WP MM GENE 1990-09-25 18:00:00 TS 22.2250 126.625 65 970 tokyo main 542 514 OOOO__________ jtwc_wp WP211990 22.2000 126.600 65 1 22.2000 126.500 5 65 970 9 60 60 9 225 225 0 22.2000 126.700 4 68 970 22.3000 126.700 STS 60 975 7 344
1990261N12141 1990 88 WP MM GENE 1990-09-25 21:00:00 TS 22.5769 126.533 main 514 501 PPPP__________ WP211990 22.5500 126.485 65 1 22.5575 126.477 5 67 967 9 65 65 9 225 225 22.5425 126.585 4 68 967 22.6575 126.585 STS 62 972 7 349
1990261N12141 1990 88 WP MM GENE 1990-09-26 00:00:00 TS 22.9250 126.475 70 965 tokyo main 501 476 OOOO__________ jtwc_wp WP211990 22.9000 126.400 65 1 22.9000 126.500 5 70 965 9 70 70 9 225 225 0 22.9000 126.500 4 68 965 23.0000 126.500 T 65 970 7 352
1990261N12141 1990 88 WP MM GENE 1990-09-26 03:00:00 TS 23.2700 126.430 main 476 467 PPPP__________ WP211990 23.2575 126.335 67 1 23.2075 126.450 5 70 965 9 72 72 9 225 225 23.3075 126.435 4 68 965 23.3075 126.500 T 67 967 7 354
1990261N12141 1990 88 WP MM GENE 1990-09-26 06:00:00 TS 23.6000 126.400 70 965 tokyo main 467 461 OOOO__________ jtwc_wp WP211990 23.6000 126.300 70 1 23.5000 126.400 5 70 965 9 75 75 9 225 225 0 23.7000 126.400 4 68 965 23.6000 126.500 T 70 965 6 357
1990261N12141 1990 88 WP MM GENE 1990-09-26 09:00:00 TS 23.9131 126.381 main 461 453 PPPP__________ WP211990 23.9150 126.307 72 1 23.8000 126.407 5 70 965 9 75 75 9 225 225 24.0300 126.400 4 72 962 23.9075 126.408 T 70 965 6 356
1990261N12141 1990 88 WP MM GENE 1990-09-26 12:00:00 TS 24.2000 126.350 70 965 tokyo main 453 439 OOOO__________ jtwc_wp WP211990 24.2000 126.300 75 1 24.1000 126.400 5 70 965 9 75 75 9 225 225 0 24.3000 126.400 4 77 960 24.2000 126.300 T 70 965 5 350
1990261N12141 1990 88 WP MM GENE 1990-09-26 15:00:00 TS 24.4406 126.282 main 439 424 PPPP__________ WP211990 24.4425 126.215 77 1 24.3925 126.300 5 70 965 9 75 75 9 225 225 24.4925 126.357 4 77 960 24.4350 126.257 T 67 967 5 344
1990261N12141 1990 88 WP MM GENE 1990-09-26 18:00:00 TS 24.7000 126.200 70 965 tokyo main 424 412 OOOO__________ jtwc_wp WP211990 24.7000 126.100 80 1 24.7000 126.200 5 70 965 9 75 75 9 225 225 0 24.7000 126.300 4 77 960 24.7000 126.200 T 65 970 6 347
1990261N12141 1990 88 WP MM GENE 1990-09-26 21:00:00 TS 25.0494 126.129 main 412 412 PPPP__________ WP211990 25.0350 125.993 80 1 25.0425 126.207 5 70 965 9 67 67 9 200 200 25.0275 126.265 4 77 960 25.0926 126.050 T 65 970 7 349
1990261N12141 1990 88 WP MM GENE 1990-09-27 00:00:00 TS 25.4250 126.050 70 965 tokyo main 414 399 OOOO__________ jtwc_wp WP211990 25.4000 125.900 80 1 25.4000 126.200 5 70 965 9 60 60 9 175 175 0 25.4000 126.200 4 77 960 25.5000 125.900 T 65 970 7 346
1990261N12141 1990 88 WP MM GENE 1990-09-27 03:00:00 TS 25.7719 125.931 main 401 401 PPPP__________ WP211990 25.7575 125.828 80 1 25.7576 126.043 5 70 965 9 60 60 9 175 175 25.7576 126.035 4 72 962 25.8150 125.820 T 65 970 7 345
1990261N12141 1990 88 WP MM GENE 1990-09-27 06:00:00 TS 26.1000 125.850 70 965 tokyo main 409 400 OOOO__________ jtwc_wp WP211990 26.1000 125.800 80 1 26.1000 125.900 5 70 965 9 60 60 9 175 175 0 26.1000 125.900 4 68 965 26.1000 125.800 T 65 970 6 355
1990261N12141 1990 88 WP MM GENE 1990-09-27 09:00:00 TS 26.4075 125.870 main 420 420 PPPP__________ WP211990 26.4150 125.827 80 1 26.4075 125.912 5 70 965 9 60 60 9 175 175 26.4075 125.912 4 68 965 26.4000 125.827 T 65 970 6 8
1990261N12141 1990 88 WP MM GENE 1990-09-27 12:00:00 TS 26.7000 125.950 70 965 tokyo main 442 442 OOOO__________ jtwc_wp WP211990 26.7000 125.900 80 1 26.7000 126.000 5 70 965 9 60 60 9 175 175 0 26.7000 126.000 4 68 965 26.7000 125.900 T 65 970 6 14
1990261N12141 1990 88 WP MM GENE 1990-09-27 15:00:00 TS 26.9912 126.029 main 456 453 PPPP__________ WP211990 26.9499 125.970 80 1 27.0075 126.085 5 70 965 9 60 60 9 175 175 27.0075 126.085 4 68 965 27.0000 125.978 T 65 970 6 17
1990261N12141 1990 88 WP MM GENE 1990-09-27 18:00:00 TS 27.2750 126.150 70 965 tokyo main 462 457 OOOO__________ jtwc_wp WP211990 27.2000 126.100 80 1 27.3000 126.200 5 70 965 9 60 60 9 175 175 0 27.3000 126.200 4 68 965 27.3000 126.100 T 65 970 6 24
1990261N12141 1990 88 WP MM GENE 1990-09-27 21:00:00 TS 27.5481 126.313 main 461 456 PPPP__________ WP211990 27.4926 126.327 80 1 27.5499 126.328 5 72 962 9 60 60 9 175 175 27.5499 126.328 4 68 965 27.5999 126.270 T 67 967 6 31
1990261N12141 1990 88 WP MM GENE 1990-09-28 00:00:00 TS 27.8250 126.525 75 960 tokyo main 466 462 OOOO__________ jtwc_wp WP211990 27.8000 126.600 80 1 27.8000 126.500 5 75 960 9 60 60 9 175 175 0 27.8000 126.500 4 68 965 27.9000 126.500 T 70 965 7 35
1990261N12141 1990 88 WP MM GENE 1990-09-28 03:00:00 TS 28.1193 126.765 main 476 438 PPPP__________ WP211990 28.0924 126.835 80 1 28.0849 126.720 5 77 955 9 60 60 9 162 162 28.0999 126.720 4 72 962 28.2000 126.785 T 70 965 8 38
1990261N12141 1990 88 WP MM GENE 1990-09-28 06:00:00 TS 28.4250 127.050 80 950 tokyo main 432 387 OOOO__________ jtwc_wp WP211990 28.4000 127.100 80 1 28.4000 127.000 5 80 950 9 60 60 9 150 150 0 28.4000 127.000 4 77 960 28.5000 127.100 T 70 965 8 41
1990261N12141 1990 88 WP MM GENE 1990-09-28 09:00:00 TS 28.7318 127.371 main 387 343 PPPP__________ WP211990 28.7425 127.428 80 1 28.7500 127.335 5 80 950 9 60 60 9 150 150 28.6350 127.328 4 77 960 28.7999 127.393 T 67 967 9 43
1990261N12141 1990 88 WP MM GENE 1990-09-28 12:00:00 TS 29.0500 127.725 80 950 tokyo main 335 284 OOOO__________ jtwc_wp WP211990 29.1000 127.800 80 1 29.1000 127.700 5 80 950 9 60 60 9 150 150 0 28.9000 127.700 4 77 960 29.1000 127.700 T 65 970 9 43
1990261N12141 1990 88 WP MM GENE 1990-09-28 15:00:00 TS 29.3910 128.078 main 284 233 PPPP__________ WP211990 29.4573 128.178 80 1 29.4148 128.035 5 77 952 9 60 60 9 137 137 29.2999 128.092 4 77 960 29.3921 128.006 T 62 972 9 44
1990261N12141 1990 88 WP MM GENE 1990-09-28 18:00:00 TS 29.7250 128.475 75 955 tokyo main 233 182 OOOO__________ jtwc_wp WP211990 29.8000 128.600 80 1 29.7000 128.400 5 75 955 9 60 60 9 125 125 0 29.7000 128.500 4 77 960 29.7000 128.400 STS 60 975 10 50
1990261N12141 1990 88 WP MM GENE 1990-09-28 21:00:00 TS 30.0064 128.911 main 182 126 PPPP__________ WP211990 30.1072 129.063 80 1 29.9268 128.784 5 72 960 9 50 50 9 112 112 29.9416 128.842 4 72 965 30.0501 128.955 STS 60 975 10 56
1990261N12141 1990 88 WP MM GENE 1990-09-29 00:00:00 TS 30.3000 129.450 70 965 tokyo main 120 67 OOOO__________ jtwc_wp WP211990 30.4000 129.600 80 1 30.2000 129.300 5 70 965 9 40 40 9 100 100 0 30.2000 129.300 4 68 970 30.4000 129.600 STS 60 975 13 59
1990261N12141 1990 88 WP MM GENE 1990-09-29 03:00:00 TS 30.6622 130.150 main 55 0 PPPP__________ WP211990 30.6850 130.228 80 1 30.6357 130.069 5 67 967 9 40 40 9 100 100 30.6358 130.061 4 68 970 30.6923 130.243 STS 62 972 15 59
1990261N12141 1990 88 WP MM GENE 1990-09-29 06:00:00 TS 31.0500 130.900 65 970 tokyo main 9 9 OOOO__________ jtwc_wp WP211990 31.0000 130.900 80 1 31.1000 130.900 5 65 970 9 40 40 9 100 100 0 31.1000 130.900 4 68 970 31.0000 130.900 T 65 970 14 58
1990261N12141 1990 88 WP MM GENE 1990-09-29 09:00:00 TS 31.4206 131.556 main 18 18 PPPP__________ WP211990 31.3844 131.535 77 1 31.4568 131.574 5 65 970 9 40 40 9 112 80 31.4568 131.574 4 68 970 31.3846 131.543 T 62 972 13 56
1990261N12141 1990 88 WP MM GENE 1990-09-29 12:00:00 TS 31.8000 132.200 65 970 tokyo main 66 58 OOOO__________ jtwc_wp WP211990 31.8000 132.200 75 1 31.8000 132.200 5 65 970 9 40 40 3 125 60 0 31.8000 132.200 4 68 970 31.8000 132.200 STS 60 975 13 55
1990261N12141 1990 88 WP MM GENE 1990-09-29 15:00:00 TS 32.1843 132.860 main 56 35 PPPP__________ WP211990 32.1920 132.921 72 1 32.1767 132.821 5 62 972 9 40 40 3 125 60 32.1767 132.821 4 68 970 32.1920 132.878 STS 60 975 14 55
1990261N12141 1990 88 WP MM GENE 1990-09-29 18:00:00 TS 32.6000 133.575 60 975 tokyo main 57 22 OOOO__________ jtwc_wp WP211990 32.6000 133.700 70 1 32.6000 133.500 4 60 975 9 40 40 3 125 60 0 32.6000 133.500 4 68 970 32.6000 133.600 STS 60 975 15 56
1990261N12141 1990 88 WP MM GENE 1990-09-29 21:00:00 TS 33.0458 134.350 main 29 21 PPPP__________ WP211990 33.0177 134.455 67 1 33.0695 134.299 4 57 977 9 35 35 3 112 55 33.0695 134.299 4 63 975 33.0265 134.349 STS 57 977 17 56
1990261N12141 1990 88 WP MM GENE 1990-09-30 00:00:00 TS 33.5500 135.250 55 980 tokyo main 14 0 OOOO__________ jtwc_wp WP211990 33.5000 135.400 65 1 33.6000 135.200 4 55 980 9 30 30 4 100 50 0 33.6000 135.200 3 58 980 33.5000 135.200 STS 55 980 20 56
1990261N12141 1990 88 WP MM GENE 1990-09-30 03:00:00 TS 34.1502 136.304 main 0 0 PPPP__________ WP211990 34.0936 136.724 62 0 34.2206 136.118 4 50 986 9 4 100 50 34.2226 136.191 3 53 985 34.0642 136.182 STS 50 987 22 57
1990261N12141 1990 88 WP MM GENE 1990-09-30 06:00:00 TS 34.7333 137.487 45 992 tokyo main 0 0 OOOO__________ jtwc_wp WP211990 34.7000 138.200 60 0 34.8000 137.200 3 45 992 0 4 100 50 0 34.8000 137.200 3 48 990 34.6000 137.300 TS 45 995 22 63
1990261N12141 1990 88 WP MM GENE 1990-09-30 09:00:00 TS 35.1785 138.725 main 0 0 PPPP__________ WP211990 35.2186 139.501 55 0 35.2063 138.675 3 1000 0 4 35.2011 138.102 3 43 992 34.9978 138.522 TS 37 997 22 68
1990261N12141 1990 88 WP MM GENE 1990-09-30 12:00:00 MX 35.5462 139.954 1008 tokyo main 0 0 OOOO__________ jtwc_wp WP211990 35.7000 140.900 50 0 35.5000 140.000 6 1008 0 0 0 35.5000 139.000 2 38 995 35.3000 139.800 TD 30 1000 20 71
1990261N12141 1990 88 WP MM GENE 1990-09-30 15:00:00 MX 35.8182 141.027 main 14 14 PPP___________ WP211990 36.1542 142.526 45 0 35.6484 140.566 6 1007 0 0 35.6521 139.990 2 33 997 TD 17 69
1990261N12141 1990 88 WP MM GENE 1990-09-30 18:00:00 MX 36.1636 141.927 1006 tokyo main 105 105 OOO___________ jtwc_wp WP211990 36.6000 144.400 40 0 36.0000 141.000 6 1006 0 0 0 36.0000 141.000 1 29 1000 19 54
1990261N12141 1990 88 WP MM GENE 1990-09-30 21:00:00 MX 36.9227 142.930 main 168 168 PPP___________ WP211990 37.0572 146.524 40 0 36.8899 141.994 6 1005 0 0 36.8883 142.070 1 26 1001 22 38
1990261N12141 1990 88 WP MM GENE 1990-10-01 00:00:00 MX 37.9444 143.644 1004 tokyo main 188 137 OOO___________ jtwc_wp WP211990 37.5000 148.800 40 0 38.0000 143.000 6 1004 0 0 0 38.0000 143.000 1 23 1002 21 12
1990261N12141 1990 88 WP MM GENE 1990-10-01 03:00:00 MX 38.9972 143.508 main 132 124 _PP___________ WP211990 -1 38.9972 143.508 6 1004 0 0 38.9972 143.508 1 23 1002 21 8
1990261N12141 1990 88 WP MM GENE 1990-10-01 06:00:00 MX 40.0000 144.000 1004 tokyo main 171 171 _OO___________ -1 40.0000 144.000 6 1004 0 0 0 40.0000 144.000 1 23 1002 22 30
1990261N12141 1990 88 WP MM GENE 1990-10-01 09:00:00 MX 40.9530 144.954 main 179 142 _PP___________ -1 40.9275 144.999 6 1003 0 0 41.0039 144.864 1 23 1002 25 37
1990261N12141 1990 88 WP MM GENE 1990-10-01 12:00:00 MX 42.0000 146.000 1002 tokyo main 137 76 _OO___________ -1 42.0000 146.000 6 1002 0 0 0 42.0000 146.000 1 23 1002 27 27
1990261N12141 1990 88 WP MM GENE 1990-10-01 15:00:00 ET 43.3983 146.624 main 81 0 _P____________ -1 43.3983 146.624 6 1001 0 0 1 31 14
1990261N12141 1990 88 WP MM GENE 1990-10-01 18:00:00 ET 45.0000 147.000 1000 tokyo main 27 _O____________ -1 45.0000 147.000 6 1000 0 0 0 32 9

Digital Typhoon Data and Search

About IBTrACS Database

This database is a web-friendly format of International Best Track Archive for Climate Stewardship (IBTrACS), a global best track data archive curated by NOAA dating back to 1842.

Updated: 2021-12-08